X  Κλείσε Στοιχεία αεροπορικών μετεωρολογικών δεδομένων METAR     EHKD De Kooy Airport
θερμοκρασία
57°F θερμοκρασία
54°F Σημείο δρόσου
88% Υγρασία



Ανεμος
8 MPH
13 KM/H
4 M/S
7 KTS



10°
V
Τρέχουσες συνθήκες

Μερικώς συννεφιασμένος Μερικώς συννεφιασμένος
πίεση 1015.92 (hPa) - 30 (inHg)
Ορατότητα 6 (μίλι) - 9.7 (km)
Aεροδρόμιο
Κωδικός αεροδρομίου EHKD

Τοποθεσία: De Kooy Airport
Απόσταση: 34 (mi)

Metar:
EHKD 182355Z AUTO 01007KT 340V040 9999 FEW016 14/12 Q1016 BLU

ώρα: 19-06-2024 01:55 CEST